sensor_id;sensor_type;location;lat;lon;timestamp;pressure;altitude;pressure_sealevel;temperature;humidity
70027;BME280;57506;50.092;15.804;2023-01-15T00:00:12;98304.63;;;6.33;100.00
70027;BME280;57506;50.092;15.804;2023-01-15T00:02:38;98275.38;;;6.31;100.00
70027;BME280;57506;50.092;15.804;2023-01-15T00:05:04;98293.13;;;6.39;100.00
70027;BME280;57506;50.092;15.804;2023-01-15T00:07:30;98283.44;;;6.38;100.00
70027;BME280;57506;50.092;15.804;2023-01-15T00:09:55;98262.22;;;6.37;100.00
70027;BME280;57506;50.092;15.804;2023-01-15T00:12:21;98266.00;;;6.42;100.00
70027;BME280;57506;50.092;15.804;2023-01-15T00:14:46;98256.22;;;6.35;100.00
70027;BME280;57506;50.092;15.804;2023-01-15T00:17:12;98258.81;;;6.43;100.00
70027;BME280;57506;50.092;15.804;2023-01-15T00:19:37;98236.75;;;6.41;100.00
70027;BME280;57506;50.092;15.804;2023-01-15T00:22:03;98247.22;;;6.57;100.00
70027;BME280;57506;50.092;15.804;2023-01-15T00:24:28;98230.84;;;6.45;100.00
70027;BME280;57506;50.092;15.804;2023-01-15T00:27:13;98227.16;;;6.46;100.00
70027;BME280;57506;50.092;15.804;2023-01-15T00:29:57;98211.97;;;6.53;100.00
70027;BME280;57506;50.092;15.804;2023-01-15T00:32:22;98226.28;;;6.67;100.00
70027;BME280;57506;50.092;15.804;2023-01-15T00:34:51;98215.66;;;6.52;100.00
70027;BME280;57506;50.092;15.804;2023-01-15T00:37:16;98205.78;;;6.53;100.00
70027;BME280;57506;50.092;15.804;2023-01-15T00:39:42;98203.22;;;6.66;100.00
70027;BME280;57506;50.092;15.804;2023-01-15T00:42:09;98199.50;;;6.67;100.00
70027;BME280;57506;50.092;15.804;2023-01-15T00:44:35;98174.91;;;6.78;100.00
70027;BME280;57506;50.092;15.804;2023-01-15T00:47:00;98196.22;;;6.93;100.00
70027;BME280;57506;50.092;15.804;2023-01-15T00:49:26;98194.22;;;7.01;100.00
70027;BME280;57506;50.092;15.804;2023-01-15T00:51:51;98195.22;;;6.94;100.00
70027;BME280;57506;50.092;15.804;2023-01-15T00:54:17;98194.03;;;7.03;100.00
70027;BME280;57506;50.092;15.804;2023-01-15T00:56:42;98189.47;;;6.97;100.00
70027;BME280;57506;50.092;15.804;2023-01-15T00:59:08;98194.72;;;7.12;100.00
70027;BME280;57506;50.092;15.804;2023-01-15T01:01:34;98189.56;;;7.10;100.00
70027;BME280;57506;50.092;15.804;2023-01-15T01:04:00;98188.53;;;7.11;100.00
70027;BME280;57506;50.092;15.804;2023-01-15T01:06:26;98184.41;;;7.15;100.00
70027;BME280;57506;50.092;15.804;2023-01-15T01:08:51;98166.91;;;7.13;100.00
70027;BME280;57506;50.092;15.804;2023-01-15T01:11:20;98175.78;;;7.13;100.00
70027;BME280;57506;50.092;15.804;2023-01-15T01:13:48;98176.19;;;7.17;100.00
70027;BME280;57506;50.092;15.804;2023-01-15T01:16:22;98154.28;;;7.07;100.00
70027;BME280;57506;50.092;15.804;2023-01-15T01:18:48;98151.03;;;7.11;100.00
70027;BME280;57506;50.092;15.804;2023-01-15T01:21:14;98153.53;;;7.19;100.00
70027;BME280;57506;50.092;15.804;2023-01-15T01:23:40;98144.22;;;7.09;100.00
70027;BME280;57506;50.092;15.804;2023-01-15T01:26:05;98139.69;;;7.16;100.00
70027;BME280;57506;50.092;15.804;2023-01-15T01:28:30;98134.16;;;7.17;100.00
70027;BME280;57506;50.092;15.804;2023-01-15T01:30:56;98125.91;;;7.12;100.00
70027;BME280;57506;50.092;15.804;2023-01-15T01:33:21;98128.19;;;7.22;100.00
70027;BME280;57506;50.092;15.804;2023-01-15T01:35:48;98137.31;;;7.27;100.00
70027;BME280;57506;50.092;15.804;2023-01-15T01:38:14;98123.66;;;7.22;100.00
70027;BME280;57506;50.092;15.804;2023-01-15T01:40:39;98127.03;;;7.37;100.00
70027;BME280;57506;50.092;15.804;2023-01-15T01:43:18;98112.56;;;7.25;100.00
70027;BME280;57506;50.092;15.804;2023-01-15T01:45:44;98125.00;;;7.40;100.00
70027;BME280;57506;50.092;15.804;2023-01-15T01:48:09;98103.69;;;7.31;100.00
70027;BME280;57506;50.092;15.804;2023-01-15T01:50:36;98118.41;;;7.49;100.00
70027;BME280;57506;50.092;15.804;2023-01-15T01:53:07;98103.53;;;7.40;100.00
70027;BME280;57506;50.092;15.804;2023-01-15T01:55:35;98122.16;;;7.54;100.00
70027;BME280;57506;50.092;15.804;2023-01-15T01:58:04;98106.28;;;7.53;100.00
70027;BME280;57506;50.092;15.804;2023-01-15T02:00:32;98110.81;;;7.52;100.00
70027;BME280;57506;50.092;15.804;2023-01-15T02:03:01;98097.19;;;7.54;100.00
70027;BME280;57506;50.092;15.804;2023-01-15T02:05:37;98099.50;;;7.57;100.00
70027;BME280;57506;50.092;15.804;2023-01-15T02:08:03;98099.91;;;7.67;100.00
70027;BME280;57506;50.092;15.804;2023-01-15T02:10:29;98087.97;;;7.63;100.00
70027;BME280;57506;50.092;15.804;2023-01-15T02:13:10;98102.44;;;7.75;100.00
70027;BME280;57506;50.092;15.804;2023-01-15T02:15:43;98095.63;;;7.79;100.00
70027;BME280;57506;50.092;15.804;2023-01-15T02:20:58;98099.97;;;7.87;100.00
70027;BME280;57506;50.092;15.804;2023-01-15T02:23:46;98098.75;;;7.89;100.00
70027;BME280;57506;50.092;15.804;2023-01-15T02:26:26;98100.63;;;8.02;100.00
70027;BME280;57506;50.092;15.804;2023-01-15T02:28:56;98081.63;;;7.97;100.00
70027;BME280;57506;50.092;15.804;2023-01-15T02:31:28;98080.59;;;7.98;100.00
70027;BME280;57506;50.092;15.804;2023-01-15T02:33:58;98088.44;;;8.13;100.00
70027;BME280;57506;50.092;15.804;2023-01-15T02:36:30;98074.44;;;8.11;100.00
70027;BME280;57506;50.092;15.804;2023-01-15T02:39:00;98075.66;;;8.15;100.00
70027;BME280;57506;50.092;15.804;2023-01-15T02:41:33;98079.34;;;8.14;100.00
70027;BME280;57506;50.092;15.804;2023-01-15T02:44:02;98088.06;;;8.09;100.00
70027;BME280;57506;50.092;15.804;2023-01-15T02:46:32;98059.94;;;7.98;100.00
70027;BME280;57506;50.092;15.804;2023-01-15T02:48:59;98076.50;;;8.08;100.00
70027;BME280;57506;50.092;15.804;2023-01-15T02:51:31;98053.38;;;7.94;100.00
70027;BME280;57506;50.092;15.804;2023-01-15T02:54:02;98060.78;;;7.92;100.00
70027;BME280;57506;50.092;15.804;2023-01-15T02:56:31;98072.34;;;7.99;100.00
70027;BME280;57506;50.092;15.804;2023-01-15T02:59:04;98052.31;;;7.89;100.00
70027;BME280;57506;50.092;15.804;2023-01-15T03:01:38;98056.66;;;7.90;100.00
70027;BME280;57506;50.092;15.804;2023-01-15T03:04:14;98058.09;;;7.99;100.00
70027;BME280;57506;50.092;15.804;2023-01-15T03:09:17;98063.69;;;7.91;100.00
70027;BME280;57506;50.092;15.804;2023-01-15T03:14:39;98047.13;;;7.81;100.00
70027;BME280;57506;50.092;15.804;2023-01-15T03:17:23;98040.53;;;7.77;100.00
70027;BME280;57506;50.092;15.804;2023-01-15T03:19:57;98031.03;;;7.67;100.00
70027;BME280;57506;50.092;15.804;2023-01-15T03:22:32;98034.34;;;7.76;100.00
70027;BME280;57506;50.092;15.804;2023-01-15T03:25:18;98031.44;;;7.71;100.00
70027;BME280;57506;50.092;15.804;2023-01-15T03:27:45;98032.06;;;7.66;100.00
70027;BME280;57506;50.092;15.804;2023-01-15T03:30:14;98023.19;;;7.66;100.00
70027;BME280;57506;50.092;15.804;2023-01-15T03:32:41;98018.84;;;7.65;100.00
70027;BME280;57506;50.092;15.804;2023-01-15T03:35:38;98028.53;;;7.66;100.00
70027;BME280;57506;50.092;15.804;2023-01-15T03:37:53;98027.94;;;7.57;100.00
70027;BME280;57506;50.092;15.804;2023-01-15T03:40:19;98011.44;;;7.60;100.00
70027;BME280;57506;50.092;15.804;2023-01-15T03:42:55;98017.19;;;7.51;100.00
70027;BME280;57506;50.092;15.804;2023-01-15T03:45:44;97993.84;;;7.38;100.00
70027;BME280;57506;50.092;15.804;2023-01-15T03:48:26;98001.28;;;7.43;100.00
70027;BME280;57506;50.092;15.804;2023-01-15T03:51:03;98006.03;;;7.47;100.00
70027;BME280;57506;50.092;15.804;2023-01-15T03:53:39;97991.78;;;7.33;100.00
70027;BME280;57506;50.092;15.804;2023-01-15T03:56:33;98000.44;;;7.29;100.00
70027;BME280;57506;50.092;15.804;2023-01-15T03:59:33;98006.63;;;7.36;100.00
70027;BME280;57506;50.092;15.804;2023-01-15T04:02:02;98002.28;;;7.28;100.00
70027;BME280;57506;50.092;15.804;2023-01-15T04:04:30;98008.69;;;7.34;100.00
70027;BME280;57506;50.092;15.804;2023-01-15T04:06:57;97995.28;;;7.27;100.00
70027;BME280;57506;50.092;15.804;2023-01-15T04:09:23;97986.81;;;7.24;100.00
70027;BME280;57506;50.092;15.804;2023-01-15T04:11:48;97995.69;;;7.31;100.00
70027;BME280;57506;50.092;15.804;2023-01-15T04:14:14;97995.47;;;7.26;100.00
70027;BME280;57506;50.092;15.804;2023-01-15T04:16:40;97999.81;;;7.33;100.00
70027;BME280;57506;50.092;15.804;2023-01-15T04:19:05;97995.09;;;7.35;100.00
70027;BME280;57506;50.092;15.804;2023-01-15T04:21:31;97967.03;;;7.25;100.00
70027;BME280;57506;50.092;15.804;2023-01-15T04:23:56;97974.25;;;7.31;100.00
70027;BME280;57506;50.092;15.804;2023-01-15T04:26:22;97968.09;;;7.30;100.00
70027;BME280;57506;50.092;15.804;2023-01-15T04:28:47;97981.47;;;7.30;100.00
70027;BME280;57506;50.092;15.804;2023-01-15T04:31:13;97941.44;;;7.16;100.00
70027;BME280;57506;50.092;15.804;2023-01-15T04:33:39;97955.66;;;7.16;100.00
70027;BME280;57506;50.092;15.804;2023-01-15T04:36:05;97965.38;;;7.24;100.00
70027;BME280;57506;50.092;15.804;2023-01-15T04:38:31;97952.97;;;7.16;100.00
70027;BME280;57506;50.092;15.804;2023-01-15T04:41:03;97957.50;;;7.16;100.00
70027;BME280;57506;50.092;15.804;2023-01-15T04:43:47;97949.91;;;7.19;100.00
70027;BME280;57506;50.092;15.804;2023-01-15T04:46:36;97956.09;;;7.20;100.00
70027;BME280;57506;50.092;15.804;2023-01-15T04:49:03;97946.41;;;7.12;100.00
70027;BME280;57506;50.092;15.804;2023-01-15T04:51:28;97939.16;;;7.06;100.00
70027;BME280;57506;50.092;15.804;2023-01-15T04:53:54;97947.84;;;7.21;100.00
70027;BME280;57506;50.092;15.804;2023-01-15T04:56:19;97934.03;;;7.11;100.00
70027;BME280;57506;50.092;15.804;2023-01-15T04:58:45;97927.03;;;7.10;100.00
70027;BME280;57506;50.092;15.804;2023-01-15T05:01:11;97935.25;;;7.15;100.00
70027;BME280;57506;50.092;15.804;2023-01-15T05:03:37;97929.69;;;7.10;100.00
70027;BME280;57506;50.092;15.804;2023-01-15T05:06:03;97935.47;;;7.20;100.00
70027;BME280;57506;50.092;15.804;2023-01-15T05:08:29;97921.03;;;7.15;100.00
70027;BME280;57506;50.092;15.804;2023-01-15T05:10:54;97934.44;;;7.21;100.00
70027;BME280;57506;50.092;15.804;2023-01-15T05:13:20;97922.09;;;7.20;100.00
70027;BME280;57506;50.092;15.804;2023-01-15T05:15:46;97932.63;;;7.28;100.00
70027;BME280;57506;50.092;15.804;2023-01-15T05:18:13;97919.44;;;7.27;100.00
70027;BME280;57506;50.092;15.804;2023-01-15T05:20:40;97921.69;;;7.30;100.00
70027;BME280;57506;50.092;15.804;2023-01-15T05:23:06;97926.03;;;7.37;100.00
70027;BME280;57506;50.092;15.804;2023-01-15T05:25:32;97934.06;;;7.51;100.00
70027;BME280;57506;50.092;15.804;2023-01-15T05:28:00;97923.34;;;7.37;100.00
70027;BME280;57506;50.092;15.804;2023-01-15T05:30:25;97928.50;;;7.39;100.00
70027;BME280;57506;50.092;15.804;2023-01-15T05:32:51;97925.81;;;7.39;100.00
70027;BME280;57506;50.092;15.804;2023-01-15T05:35:16;97917.16;;;7.37;100.00
70027;BME280;57506;50.092;15.804;2023-01-15T05:37:42;97928.31;;;7.41;100.00
70027;BME280;57506;50.092;15.804;2023-01-15T05:40:08;97924.78;;;7.40;100.00
70027;BME280;57506;50.092;15.804;2023-01-15T05:42:33;97890.34;;;7.24;100.00
70027;BME280;57506;50.092;15.804;2023-01-15T05:44:59;97912.22;;;7.41;100.00
70027;BME280;57506;50.092;15.804;2023-01-15T05:47:24;97927.50;;;7.60;100.00
70027;BME280;57506;50.092;15.804;2023-01-15T05:49:49;97923.16;;;7.59;100.00
70027;BME280;57506;50.092;15.804;2023-01-15T05:52:15;97922.53;;;7.50;100.00
70027;BME280;57506;50.092;15.804;2023-01-15T05:54:40;97925.84;;;7.46;100.00
70027;BME280;57506;50.092;15.804;2023-01-15T05:57:10;97928.28;;;7.47;100.00
70027;BME280;57506;50.092;15.804;2023-01-15T05:59:35;97913.47;;;7.45;100.00
70027;BME280;57506;50.092;15.804;2023-01-15T06:02:01;97939.03;;;7.60;100.00
70027;BME280;57506;50.092;15.804;2023-01-15T06:04:26;97929.75;;;7.50;100.00
70027;BME280;57506;50.092;15.804;2023-01-15T06:06:53;97929.50;;;7.31;100.00
70027;BME280;57506;50.092;15.804;2023-01-15T06:09:19;97927.06;;;7.30;100.00
70027;BME280;57506;50.092;15.804;2023-01-15T06:11:47;97920.66;;;7.24;100.00
70027;BME280;57506;50.092;15.804;2023-01-15T06:14:13;97910.13;;;7.16;100.00
70027;BME280;57506;50.092;15.804;2023-01-15T06:16:39;97926.41;;;7.08;100.00
70027;BME280;57506;50.092;15.804;2023-01-15T06:19:05;97939.97;;;7.07;100.00
70027;BME280;57506;50.092;15.804;2023-01-15T06:21:33;97942.59;;;6.87;100.00
70027;BME280;57506;50.092;15.804;2023-01-15T06:23:59;97928.97;;;6.75;100.00
70027;BME280;57506;50.092;15.804;2023-01-15T06:26:25;97923.56;;;6.68;100.00
70027;BME280;57506;50.092;15.804;2023-01-15T06:28:51;97931.16;;;6.58;100.00
70027;BME280;57506;50.092;15.804;2023-01-15T06:31:18;97937.78;;;6.62;100.00
70027;BME280;57506;50.092;15.804;2023-01-15T06:33:45;97939.63;;;6.62;100.00
70027;BME280;57506;50.092;15.804;2023-01-15T06:36:17;97926.38;;;6.47;100.00
70027;BME280;57506;50.092;15.804;2023-01-15T06:38:43;97921.81;;;6.41;100.00
70027;BME280;57506;50.092;15.804;2023-01-15T06:41:13;97925.97;;;6.50;100.00
70027;BME280;57506;50.092;15.804;2023-01-15T06:43:58;97939.97;;;6.46;100.00
70027;BME280;57506;50.092;15.804;2023-01-15T06:46:44;97914.16;;;6.31;100.00
70027;BME280;57506;50.092;15.804;2023-01-15T06:49:29;97912.72;;;6.29;100.00
70027;BME280;57506;50.092;15.804;2023-01-15T06:51:55;97921.78;;;6.35;100.00
70027;BME280;57506;50.092;15.804;2023-01-15T06:54:20;97915.13;;;6.24;100.00
70027;BME280;57506;50.092;15.804;2023-01-15T06:56:46;97908.53;;;6.20;100.00
70027;BME280;57506;50.092;15.804;2023-01-15T06:59:11;97898.59;;;6.07;100.00
70027;BME280;57506;50.092;15.804;2023-01-15T07:01:37;97871.00;;;6.00;100.00
70027;BME280;57506;50.092;15.804;2023-01-15T07:04:02;97895.31;;;6.12;100.00
70027;BME280;57506;50.092;15.804;2023-01-15T07:06:28;97885.00;;;6.09;100.00
70027;BME280;57506;50.092;15.804;2023-01-15T07:08:54;97875.19;;;6.16;100.00
70027;BME280;57506;50.092;15.804;2023-01-15T07:11:19;97882.97;;;6.11;100.00
70027;BME280;57506;50.092;15.804;2023-01-15T07:13:45;97876.75;;;6.04;100.00
70027;BME280;57506;50.092;15.804;2023-01-15T07:16:10;97892.66;;;6.12;100.00
70027;BME280;57506;50.092;15.804;2023-01-15T07:18:52;97867.38;;;6.14;100.00
70027;BME280;57506;50.092;15.804;2023-01-15T07:21:18;97874.56;;;6.14;100.00
70027;BME280;57506;50.092;15.804;2023-01-15T07:23:44;97858.66;;;6.06;100.00
70027;BME280;57506;50.092;15.804;2023-01-15T07:26:09;97875.59;;;6.19;100.00
70027;BME280;57506;50.092;15.804;2023-01-15T07:28:35;97880.59;;;6.29;100.00
70027;BME280;57506;50.092;15.804;2023-01-15T07:31:00;97873.22;;;6.31;100.00
70027;BME280;57506;50.092;15.804;2023-01-15T07:33:26;97891.13;;;6.37;100.00
70027;BME280;57506;50.092;15.804;2023-01-15T07:35:51;97893.84;;;6.50;100.00
70027;BME280;57506;50.092;15.804;2023-01-15T07:38:17;97878.56;;;6.31;100.00
70027;BME280;57506;50.092;15.804;2023-01-15T07:40:42;97884.75;;;6.38;100.00
70027;BME280;57506;50.092;15.804;2023-01-15T07:43:09;97874.91;;;6.45;100.00
70027;BME280;57506;50.092;15.804;2023-01-15T07:45:53;97878.22;;;6.47;100.00
70027;BME280;57506;50.092;15.804;2023-01-15T07:48:37;97826.63;;;6.19;100.00
70027;BME280;57506;50.092;15.804;2023-01-15T07:51:21;97866.28;;;6.56;100.00
70027;BME280;57506;50.092;15.804;2023-01-15T07:53:47;97861.34;;;6.53;100.00
70027;BME280;57506;50.092;15.804;2023-01-15T07:56:13;97878.88;;;6.62;100.00
70027;BME280;57506;50.092;15.804;2023-01-15T07:58:38;97874.91;;;6.45;100.00
70027;BME280;57506;50.092;15.804;2023-01-15T08:01:04;97889.59;;;6.62;100.00
70027;BME280;57506;50.092;15.804;2023-01-15T08:03:29;97878.19;;;6.41;100.00
70027;BME280;57506;50.092;15.804;2023-01-15T08:05:55;97862.50;;;6.31;100.00
70027;BME280;57506;50.092;15.804;2023-01-15T08:08:20;97875.78;;;6.59;100.00
70027;BME280;57506;50.092;15.804;2023-01-15T08:10:46;97847.88;;;6.33;100.00
70027;BME280;57506;50.092;15.804;2023-01-15T08:13:30;97879.91;;;6.61;100.00
70027;BME280;57506;50.092;15.804;2023-01-15T08:16:14;97885.69;;;6.65;100.00
70027;BME280;57506;50.092;15.804;2023-01-15T08:18:40;97890.38;;;6.56;100.00
70027;BME280;57506;50.092;15.804;2023-01-15T08:21:05;97884.88;;;6.64;100.00
70027;BME280;57506;50.092;15.804;2023-01-15T08:23:31;97881.97;;;6.59;100.00
70027;BME280;57506;50.092;15.804;2023-01-15T08:26:00;97893.47;;;6.53;100.00
70027;BME280;57506;50.092;15.804;2023-01-15T08:28:26;97893.50;;;6.66;100.00
70027;BME280;57506;50.092;15.804;2023-01-15T08:30:55;97876.59;;;6.59;100.00
70027;BME280;57506;50.092;15.804;2023-01-15T08:33:20;97889.75;;;6.54;100.00
70027;BME280;57506;50.092;15.804;2023-01-15T08:35:46;97872.28;;;6.58;100.00
70027;BME280;57506;50.092;15.804;2023-01-15T08:38:11;97854.16;;;6.60;100.00
70027;BME280;57506;50.092;15.804;2023-01-15T08:40:37;97876.38;;;6.54;100.00
70027;BME280;57506;50.092;15.804;2023-01-15T08:43:23;97870.34;;;6.39;100.00
70027;BME280;57506;50.092;15.804;2023-01-15T08:45:48;97855.94;;;6.40;100.00
70027;BME280;57506;50.092;15.804;2023-01-15T08:48:14;97848.16;;;6.45;100.00
70027;BME280;57506;50.092;15.804;2023-01-15T08:50:39;97844.44;;;6.46;100.00
70027;BME280;57506;50.092;15.804;2023-01-15T08:53:05;97850.66;;;6.60;100.00
70027;BME280;57506;50.092;15.804;2023-01-15T08:55:30;97865.50;;;6.62;100.00
70027;BME280;57506;50.092;15.804;2023-01-15T08:57:57;97857.06;;;6.65;100.00
70027;BME280;57506;50.092;15.804;2023-01-15T09:00:22;97845.75;;;6.70;100.00
70027;BME280;57506;50.092;15.804;2023-01-15T09:02:49;97839.16;;;6.73;100.00
70027;BME280;57506;50.092;15.804;2023-01-15T09:05:16;97812.38;;;6.59;100.00
70027;BME280;57506;50.092;15.804;2023-01-15T09:07:41;97822.31;;;6.79;100.00
70027;BME280;57506;50.092;15.804;2023-01-15T09:10:11;97843.94;;;6.90;100.00
70027;BME280;57506;50.092;15.804;2023-01-15T09:12:36;97850.75;;;6.93;100.00
70027;BME280;57506;50.092;15.804;2023-01-15T09:15:02;97824.16;;;6.78;100.00
70027;BME280;57506;50.092;15.804;2023-01-15T09:17:28;97854.06;;;6.95;100.00
70027;BME280;57506;50.092;15.804;2023-01-15T09:19:53;97856.09;;;6.99;100.00
70027;BME280;57506;50.092;15.804;2023-01-15T09:22:19;97850.34;;;7.09;100.00
70027;BME280;57506;50.092;15.804;2023-01-15T09:24:45;97862.91;;;7.02;100.00
70027;BME280;57506;50.092;15.804;2023-01-15T09:27:11;97857.13;;;6.98;100.00
70027;BME280;57506;50.092;15.804;2023-01-15T09:29:37;97851.38;;;7.01;100.00
70027;BME280;57506;50.092;15.804;2023-01-15T09:32:02;97851.16;;;7.03;100.00
70027;BME280;57506;50.092;15.804;2023-01-15T09:34:28;97847.25;;;7.06;100.00
70027;BME280;57506;50.092;15.804;2023-01-15T09:36:53;97843.72;;;6.98;100.00
70027;BME280;57506;50.092;15.804;2023-01-15T09:39:19;97833.03;;;7.05;100.00
70027;BME280;57506;50.092;15.804;2023-01-15T09:41:54;97828.94;;;7.22;100.00
70027;BME280;57506;50.092;15.804;2023-01-15T09:47:25;97823.97;;;7.19;100.00
70027;BME280;57506;50.092;15.804;2023-01-15T09:55:19;97804.63;;;6.97;100.00
70027;BME280;57506;50.092;15.804;2023-01-15T09:57:50;97802.94;;;7.16;100.00
70027;BME280;57506;50.092;15.804;2023-01-15T10:00:21;97802.13;;;7.22;100.00
70027;BME280;57506;50.092;15.804;2023-01-15T10:05:46;97805.84;;;7.34;100.00
70027;BME280;57506;50.092;15.804;2023-01-15T10:08:20;97821.91;;;7.48;100.00
70027;BME280;57506;50.092;15.804;2023-01-15T10:10:55;97810.38;;;7.41;100.00
70027;BME280;57506;50.092;15.804;2023-01-15T10:13:33;97804.22;;;7.27;100.00
70027;BME280;57506;50.092;15.804;2023-01-15T10:16:02;97791.00;;;7.25;100.00
70027;BME280;57506;50.092;15.804;2023-01-15T10:18:28;97805.84;;;7.34;100.00
70027;BME280;57506;50.092;15.804;2023-01-15T10:26:44;97772.66;;;7.42;100.00
70027;BME280;57506;50.092;15.804;2023-01-15T10:29:31;97762.13;;;7.41;100.00
70027;BME280;57506;50.092;15.804;2023-01-15T10:32:08;97773.25;;;7.51;100.00
70027;BME280;57506;50.092;15.804;2023-01-15T10:43:06;97757.47;;;7.87;100.00
70027;BME280;57506;50.092;15.804;2023-01-15T10:45:47;97754.22;;;7.79;100.00
70027;BME280;57506;50.092;15.804;2023-01-15T10:50:47;97743.84;;;7.89;100.00
70027;BME280;57506;50.092;15.804;2023-01-15T10:53:52;97744.06;;;7.94;100.00
70027;BME280;57506;50.092;15.804;2023-01-15T10:59:05;97739.31;;;7.89;100.00
70027;BME280;57506;50.092;15.804;2023-01-15T11:01:36;97741.94;;;8.02;100.00
70027;BME280;57506;50.092;15.804;2023-01-15T11:04:03;97740.91;;;7.97;100.00
70027;BME280;57506;50.092;15.804;2023-01-15T11:06:30;97735.13;;;8.00;100.00
70027;BME280;57506;50.092;15.804;2023-01-15T11:08:57;97728.53;;;8.02;100.00
70027;BME280;57506;50.092;15.804;2023-01-15T11:11:34;97732.16;;;8.21;100.00
70027;BME280;57506;50.092;15.804;2023-01-15T11:14:40;97711.19;;;8.05;100.00
70027;BME280;57506;50.092;15.804;2023-01-15T11:17:31;97719.88;;;8.00;100.00
70027;BME280;57506;50.092;15.804;2023-01-15T11:22:49;97736.91;;;8.19;100.00
70027;BME280;57506;50.092;15.804;2023-01-15T11:25:27;97718.59;;;8.10;100.00
70027;BME280;57506;50.092;15.804;2023-01-15T11:27:53;97734.44;;;8.18;100.00
70027;BME280;57506;50.092;15.804;2023-01-15T11:30:26;97731.34;;;8.21;100.00
70027;BME280;57506;50.092;15.804;2023-01-15T11:32:57;97728.00;;;8.32;100.00
70027;BME280;57506;50.092;15.804;2023-01-15T11:35:23;97734.56;;;8.29;100.00
70027;BME280;57506;50.092;15.804;2023-01-15T11:37:59;97715.22;;;8.21;100.00
70027;BME280;57506;50.092;15.804;2023-01-15T11:40:25;97720.94;;;8.31;100.00
70027;BME280;57506;50.092;15.804;2023-01-15T11:42:51;97723.00;;;8.29;100.00
70027;BME280;57506;50.092;15.804;2023-01-15T11:45:51;97723.03;;;8.35;100.00
70027;BME280;57506;50.092;15.804;2023-01-15T11:48:43;97702.38;;;8.29;100.00
70027;BME280;57506;50.092;15.804;2023-01-15T11:51:28;97713.44;;;8.46;100.00
70027;BME280;57506;50.092;15.804;2023-01-15T11:54:01;97720.44;;;8.54;100.00
70027;BME280;57506;50.092;15.804;2023-01-15T11:56:29;97721.16;;;8.67;100.00
70027;BME280;57506;50.092;15.804;2023-01-15T11:59:00;97713.09;;;8.67;100.00
70027;BME280;57506;50.092;15.804;2023-01-15T12:01:38;97721.16;;;8.67;100.00
70027;BME280;57506;50.092;15.804;2023-01-15T12:06:51;97709.19;;;8.63;100.00
70027;BME280;57506;50.092;15.804;2023-01-15T12:12:53;97720.22;;;8.55;100.00
70027;BME280;57506;50.092;15.804;2023-01-15T12:15:17;97712.03;;;8.44;100.00
70027;BME280;57506;50.092;15.804;2023-01-15T12:31:56;97727.91;;;8.07;100.00
70027;BME280;57506;50.092;15.804;2023-01-15T12:37:27;97744.00;;;8.07;100.00
70027;BME280;57506;50.092;15.804;2023-01-15T12:43:14;97774.75;;;7.98;100.00
70027;BME280;57506;50.092;15.804;2023-01-15T12:46:01;97734.47;;;7.53;100.00
70027;BME280;57506;50.092;15.804;2023-01-15T12:48:46;97781.88;;;7.66;100.00
70027;BME280;57506;50.092;15.804;2023-01-15T12:51:16;97771.00;;;7.34;100.00
70027;BME280;57506;50.092;15.804;2023-01-15T12:53:52;97728.38;;;6.87;100.00
70027;BME280;57506;50.092;15.804;2023-01-15T12:59:03;97775.34;;;6.96;100.00
70027;BME280;57506;50.092;15.804;2023-01-15T13:02:05;97783.59;;;6.81;100.00
70027;BME280;57506;50.092;15.804;2023-01-15T13:04:46;97769.34;;;6.67;100.00
70027;BME280;57506;50.092;15.804;2023-01-15T13:07:17;97771.63;;;6.71;100.00
70027;BME280;57506;50.092;15.804;2023-01-15T13:12:16;97738.22;;;6.40;100.00
70027;BME280;57506;50.092;15.804;2023-01-15T13:14:42;97761.28;;;6.54;100.00
70027;BME280;57506;50.092;15.804;2023-01-15T13:20:46;97742.53;;;6.41;100.00
70027;BME280;57506;50.092;15.804;2023-01-15T13:23:43;97761.28;;;6.48;100.00
70027;BME280;57506;50.092;15.804;2023-01-15T13:34:30;97738.19;;;6.27;100.00
70027;BME280;57506;50.092;15.804;2023-01-15T13:37:09;97753.84;;;6.30;100.00
70027;BME280;57506;50.092;15.804;2023-01-15T13:39:40;97782.06;;;6.52;100.00
70027;BME280;57506;50.092;15.804;2023-01-15T13:42:18;97789.69;;;6.42;100.00
70027;BME280;57506;50.092;15.804;2023-01-15T13:47:48;97813.78;;;6.55;100.00
70027;BME280;57506;50.092;15.804;2023-01-15T13:50:18;97828.59;;;6.51;100.00
70027;BME280;57506;50.092;15.804;2023-01-15T13:52:47;97837.84;;;6.42;100.00
70027;BME280;57506;50.092;15.804;2023-01-15T13:55:38;97849.22;;;6.57;100.00
70027;BME280;57506;50.092;15.804;2023-01-15T13:58:56;97819.28;;;6.34;100.00
70027;BME280;57506;50.092;15.804;2023-01-15T14:01:24;97832.91;;;6.46;100.00
70027;BME280;57506;50.092;15.804;2023-01-15T14:04:13;97830.88;;;6.54;100.00
70027;BME280;57506;50.092;15.804;2023-01-15T14:06:50;97819.53;;;6.52;100.00
70027;BME280;57506;50.092;15.804;2023-01-15T14:12:43;97792.97;;;6.44;100.00
70027;BME280;57506;50.092;15.804;2023-01-15T14:34:24;97917.16;;;6.56;100.00
70027;BME280;57506;50.092;15.804;2023-01-15T14:37:01;97929.06;;;6.47;100.00
70027;BME280;57506;50.092;15.804;2023-01-15T14:39:41;97943.63;;;6.38;100.00
70027;BME280;57506;50.092;15.804;2023-01-15T14:47:59;97976.84;;;6.16;100.00
70027;BME280;57506;50.092;15.804;2023-01-15T14:52:53;97952.63;;;5.75;100.00
70027;BME280;57506;50.092;15.804;2023-01-15T14:55:20;97978.53;;;5.95;100.00
70027;BME280;57506;50.092;15.804;2023-01-15T14:58:01;97994.38;;;5.97;100.00
70027;BME280;57506;50.092;15.804;2023-01-15T15:00:37;98016.53;;;5.91;100.00
70027;BME280;57506;50.092;15.804;2023-01-15T15:03:13;98007.41;;;5.85;100.00
70027;BME280;57506;50.092;15.804;2023-01-15T15:05:42;98015.31;;;5.72;100.00